createdAt,value
2023-04-27T00:00:51.253Z,54.21
2023-04-27T00:01:51.310Z,49.06
2023-04-27T00:02:51.405Z,48.39
2023-04-27T00:03:51.318Z,48.31
2023-04-27T00:04:51.460Z,43.69
2023-04-27T00:05:51.318Z,43.35
2023-04-27T00:06:51.233Z,44.24
2023-04-27T00:07:51.214Z,57.52
2023-04-27T00:08:51.224Z,46.50
2023-04-27T00:09:51.185Z,51.00
2023-04-27T00:10:51.849Z,44.65
2023-04-27T00:11:51.205Z,43.55
2023-04-27T00:12:51.208Z,44.89
2023-04-27T00:13:51.165Z,53.30
2023-04-27T00:14:51.140Z,45.09
2023-04-27T00:15:51.171Z,47.40
2023-04-27T00:16:51.170Z,51.58
2023-04-27T00:17:51.907Z,48.47
2023-04-27T00:18:51.147Z,49.66
2023-04-27T00:19:51.122Z,44.50
2023-04-27T00:20:51.101Z,44.46
2023-04-27T00:21:51.100Z,49.79
2023-04-27T00:22:51.089Z,49.83
2023-04-27T00:23:51.100Z,43.93
2023-04-27T00:24:51.052Z,42.86
2023-04-27T00:25:51.065Z,43.81
2023-04-27T00:26:51.847Z,49.50
2023-04-27T00:27:51.035Z,45.07
2023-04-27T00:28:51.093Z,56.15
2023-04-27T00:29:51.030Z,58.23
2023-04-27T00:30:51.033Z,44.57
2023-04-27T00:31:51.074Z,46.03
2023-04-27T00:32:51.131Z,52.81
2023-04-27T00:33:51.007Z,55.42
2023-04-27T00:34:51.032Z,46.32
2023-04-27T00:35:50.973Z,45.93
2023-04-27T00:36:51.908Z,53.43
2023-04-27T00:37:51.015Z,57.01
2023-04-27T00:38:50.982Z,45.50
2023-04-27T00:39:50.967Z,62.08
2023-04-27T00:40:50.971Z,58.59
2023-04-27T00:41:50.926Z,44.16
2023-04-27T00:42:50.927Z,46.42
2023-04-27T00:43:50.962Z,63.12
2023-04-27T00:44:50.919Z,44.18
2023-04-27T00:45:50.968Z,56.09
2023-04-27T00:46:50.932Z,43.85
2023-04-27T00:47:50.935Z,43.86
2023-04-27T00:48:50.903Z,52.03
2023-04-27T00:49:50.934Z,51.69
2023-04-27T00:50:51.754Z,49.40
2023-04-27T00:51:50.912Z,50.41
2023-04-27T00:52:50.857Z,44.05
2023-04-27T00:53:50.846Z,44.82
2023-04-27T00:54:50.837Z,45.38
2023-04-27T00:55:50.854Z,50.44
2023-04-27T00:56:50.852Z,51.86
2023-04-27T00:57:50.853Z,51.94
2023-04-27T00:58:50.817Z,53.79
2023-04-27T00:59:50.844Z,44.12
2023-04-27T01:00:50.929Z,50.11
2023-04-27T01:01:50.842Z,49.53
2023-04-27T01:02:50.986Z,43.67
2023-04-27T01:03:50.945Z,46.56
2023-04-27T01:04:50.867Z,45.79
2023-04-27T01:05:50.775Z,43.32
2023-04-27T01:06:50.782Z,48.12
2023-04-27T01:07:50.751Z,46.15
2023-04-27T01:08:50.740Z,43.21
2023-04-27T01:09:50.742Z,42.96
2023-04-27T01:10:50.734Z,44.65
2023-04-27T01:11:50.744Z,52.73
2023-04-27T01:12:50.745Z,43.17
2023-04-27T01:13:50.716Z,43.47
2023-04-27T01:14:50.685Z,47.83
2023-04-27T01:15:50.686Z,56.87
2023-04-27T01:16:50.747Z,52.67
2023-04-27T01:17:50.719Z,43.97
2023-04-27T01:18:50.651Z,43.72
2023-04-27T01:19:50.647Z,43.66
2023-04-27T01:20:50.672Z,49.79
2023-04-27T01:21:50.650Z,47.68
2023-04-27T01:22:50.668Z,44.73
2023-04-27T01:23:50.635Z,55.50
2023-04-27T01:24:50.629Z,49.11
2023-04-27T01:25:50.624Z,43.03
2023-04-27T01:26:50.598Z,43.21
2023-04-27T01:27:51.396Z,43.07
2023-04-27T01:28:50.595Z,49.77
2023-04-27T01:29:50.603Z,43.19
2023-04-27T01:30:50.627Z,53.59
2023-04-27T01:31:50.558Z,45.35
2023-04-27T01:32:50.699Z,56.76
2023-04-27T01:33:50.538Z,44.56
2023-04-27T01:34:50.538Z,57.10
2023-04-27T01:35:50.557Z,44.51
2023-04-27T01:36:50.526Z,42.94
2023-04-27T01:37:50.534Z,49.16
2023-04-27T01:38:50.517Z,43.50
2023-04-27T01:39:50.541Z,43.38
2023-04-27T01:40:50.516Z,44.11
2023-04-27T01:41:50.495Z,43.08
2023-04-27T01:42:50.479Z,42.86
2023-04-27T01:43:51.202Z,43.06
2023-04-27T01:44:50.521Z,42.84
2023-04-27T01:45:50.486Z,42.69
2023-04-27T01:46:50.515Z,42.90
2023-04-27T01:47:50.490Z,51.43
2023-04-27T01:48:50.447Z,50.50
2023-04-27T01:49:50.451Z,42.82
2023-04-27T01:50:50.428Z,43.11
2023-04-27T01:51:50.436Z,43.44
2023-04-27T01:52:50.420Z,48.04
2023-04-27T01:53:50.929Z,46.79
2023-04-27T01:54:50.403Z,44.13
2023-04-27T01:55:50.395Z,49.76
2023-04-27T01:56:50.395Z,43.62
2023-04-27T01:57:50.369Z,49.62
2023-04-27T01:58:50.400Z,53.78
2023-04-27T01:59:50.387Z,50.61
2023-04-27T02:00:50.346Z,43.61
2023-04-27T02:01:50.380Z,43.48
2023-04-27T02:02:50.528Z,43.27
2023-04-27T02:03:51.119Z,43.63
2023-04-27T02:04:50.471Z,44.28
2023-04-27T02:05:50.392Z,56.47
2023-04-27T02:06:50.340Z,47.53
2023-04-27T02:07:50.303Z,44.99
2023-04-27T02:08:50.297Z,42.86
2023-04-27T02:09:50.290Z,49.60
2023-04-27T02:10:50.301Z,43.94
2023-04-27T02:11:50.283Z,50.52
2023-04-27T02:12:51.268Z,44.34
2023-04-27T02:13:50.314Z,55.61
2023-04-27T02:14:50.241Z,47.83
2023-04-27T02:15:50.308Z,48.81
2023-04-27T02:16:50.226Z,45.88
2023-04-27T02:17:50.268Z,49.97
2023-04-27T02:18:50.244Z,44.68
2023-04-27T02:19:50.262Z,44.23
2023-04-27T02:20:50.235Z,43.46
2023-04-27T02:21:50.206Z,43.20
2023-04-27T02:22:50.190Z,52.10
2023-04-27T02:23:50.179Z,48.76
2023-04-27T02:24:50.184Z,48.20
2023-04-27T02:25:50.199Z,45.35
2023-04-27T02:26:50.167Z,54.85
2023-04-27T02:27:50.179Z,43.57
2023-04-27T02:28:50.220Z,49.35
2023-04-27T02:29:50.160Z,43.44
2023-04-27T02:30:50.132Z,51.26
2023-04-27T02:31:50.159Z,53.47
2023-04-27T02:32:50.191Z,45.58
2023-04-27T02:33:50.105Z,45.14
2023-04-27T02:34:50.105Z,51.75
2023-04-27T02:35:50.086Z,53.97
2023-04-27T02:36:50.089Z,48.71
2023-04-27T02:37:50.113Z,49.22
2023-04-27T02:38:50.113Z,53.06
2023-04-27T02:39:50.068Z,60.13
2023-04-27T02:40:50.046Z,50.90
2023-04-27T02:41:50.052Z,57.09
2023-04-27T02:42:50.056Z,47.53
2023-04-27T02:43:50.055Z,51.28
2023-04-27T02:44:50.039Z,57.00
2023-04-27T02:45:50.020Z,51.79
2023-04-27T02:46:50.068Z,56.67
2023-04-27T02:47:51.033Z,56.22
2023-04-27T02:48:50.014Z,53.79
2023-04-27T02:49:49.993Z,53.41
2023-04-27T02:50:49.983Z,56.75
2023-04-27T02:51:49.987Z,55.26
2023-04-27T02:52:49.969Z,55.79
2023-04-27T02:53:49.964Z,47.76
2023-04-27T02:54:49.962Z,48.24
2023-04-27T02:55:49.933Z,47.68
2023-04-27T02:56:49.922Z,51.68
2023-04-27T02:57:49.958Z,53.15
2023-04-27T02:58:49.924Z,54.96
2023-04-27T02:59:49.900Z,54.61
2023-04-27T03:00:49.951Z,54.08
2023-04-27T03:01:49.946Z,54.71
2023-04-27T03:02:50.007Z,58.64
2023-04-27T03:03:49.965Z,51.06
2023-04-27T03:04:49.959Z,48.63
2023-04-27T03:05:49.908Z,55.26
2023-04-27T03:06:49.863Z,54.26
2023-04-27T03:07:49.857Z,60.38
2023-04-27T03:08:49.908Z,56.19
2023-04-27T03:09:49.929Z,60.38
2023-04-27T03:10:49.850Z,59.21
2023-04-27T03:11:49.802Z,53.88
2023-04-27T03:12:49.836Z,57.20
2023-04-27T03:13:49.812Z,55.93
2023-04-27T03:14:49.812Z,54.18
2023-04-27T03:15:49.804Z,59.02
2023-04-27T03:16:49.849Z,58.75
2023-04-27T03:17:49.806Z,57.76
2023-04-27T03:18:49.772Z,49.66
2023-04-27T03:19:49.751Z,66.11
2023-04-27T03:20:49.785Z,54.53
2023-04-27T03:21:49.757Z,51.25
2023-04-27T03:22:49.735Z,59.95
2023-04-27T03:23:49.758Z,64.57
2023-04-27T03:24:49.720Z,57.34
2023-04-27T03:25:49.709Z,61.15
2023-04-27T03:26:49.731Z,67.02
2023-04-27T03:27:49.721Z,59.78
2023-04-27T03:28:49.709Z,64.18
2023-04-27T03:29:49.684Z,62.37
2023-04-27T03:30:49.675Z,62.47
2023-04-27T03:31:49.701Z,66.41
2023-04-27T03:32:49.703Z,63.16
2023-04-27T03:33:49.653Z,56.67
2023-04-27T03:34:49.648Z,64.30
2023-04-27T03:35:50.344Z,62.73
2023-04-27T03:36:50.361Z,64.55
2023-04-27T03:37:50.385Z,61.02
2023-04-27T03:38:49.660Z,66.28
2023-04-27T03:39:49.606Z,68.61
2023-04-27T03:40:49.608Z,55.76
2023-04-27T03:41:49.651Z,62.50
2023-04-27T03:42:49.637Z,62.05
2023-04-27T03:43:49.576Z,66.59
2023-04-27T03:44:49.602Z,63.70
2023-04-27T03:45:49.632Z,68.41
2023-04-27T04:03:09.197Z,64.76
2023-04-27T04:04:09.209Z,61.33
2023-04-27T04:05:09.099Z,59.24
2023-04-27T04:06:10.326Z,62.90
2023-04-27T04:07:10.183Z,64.65
2023-04-27T04:08:10.179Z,66.88
2023-04-27T04:09:10.164Z,61.72
2023-04-27T04:10:10.225Z,62.81
2023-04-27T04:11:10.182Z,61.70
2023-04-27T04:12:10.204Z,61.86
2023-04-27T04:13:10.178Z,59.66
2023-04-27T04:14:10.157Z,65.01
2023-04-27T04:15:11.320Z,68.43
2023-04-27T04:16:10.244Z,67.93
2023-04-27T04:17:10.123Z,63.89
2023-04-27T04:18:10.215Z,59.63
2023-04-27T04:19:10.131Z,69.90
2023-04-27T04:20:10.093Z,69.11
2023-04-27T04:21:10.135Z,64.74
2023-04-27T04:22:10.120Z,66.10
2023-04-27T04:23:10.086Z,57.47
2023-04-27T04:24:10.079Z,69.12
2023-04-27T04:25:10.079Z,70.19
2023-04-27T04:26:10.103Z,65.44
2023-04-27T04:27:10.095Z,70.30
2023-04-27T04:28:10.078Z,71.76
2023-04-27T04:29:11.093Z,66.69
2023-04-27T04:30:11.867Z,61.81
2023-04-27T04:31:10.037Z,68.07
2023-04-27T04:32:10.031Z,61.30
2023-04-27T04:33:10.004Z,69.35
2023-04-27T04:34:10.072Z,63.52
2023-04-27T04:35:10.021Z,65.65
2023-04-27T04:36:10.004Z,68.83
2023-04-27T04:37:09.971Z,65.85
2023-04-27T04:38:09.984Z,72.81
2023-04-27T04:39:09.970Z,68.15
2023-04-27T04:40:09.986Z,69.03
2023-04-27T04:41:09.990Z,71.49
2023-04-27T04:42:09.941Z,63.93
2023-04-27T04:43:09.950Z,69.60
2023-04-27T04:44:09.921Z,68.22
2023-04-27T04:45:09.933Z,67.24
2023-04-27T04:46:09.947Z,68.12
2023-04-27T04:47:09.922Z,68.60
2023-04-27T04:48:09.890Z,70.79
2023-04-27T04:49:09.901Z,69.70
2023-04-27T04:50:09.892Z,71.80
2023-04-27T04:51:09.898Z,67.34
2023-04-27T04:52:09.924Z,65.82
2023-04-27T04:53:09.878Z,62.10
2023-04-27T04:54:09.890Z,69.14
2023-04-27T04:55:09.903Z,68.04
2023-04-27T04:56:09.884Z,65.57
2023-04-27T04:57:09.867Z,70.20
2023-04-27T04:58:09.873Z,63.18
2023-04-27T04:59:11.920Z,72.06
2023-04-27T05:00:10.851Z,67.03
2023-04-27T05:01:09.886Z,65.45
2023-04-27T05:02:09.849Z,68.22
2023-04-27T05:03:10.040Z,71.68
2023-04-27T05:04:09.978Z,71.70
2023-04-27T05:05:09.818Z,69.85
2023-04-27T05:06:09.770Z,68.08
2023-04-27T05:07:09.951Z,64.09
2023-04-27T05:08:10.742Z,65.21
2023-04-27T05:09:09.729Z,67.77
2023-04-27T05:10:09.732Z,73.29
2023-04-27T05:11:09.723Z,68.18
2023-04-27T05:12:09.708Z,68.43
2023-04-27T05:13:09.685Z,71.32
2023-04-27T05:14:09.710Z,70.01
2023-04-27T05:15:09.707Z,68.37
2023-04-27T05:16:09.749Z,68.58
2023-04-27T05:17:09.717Z,70.71
2023-04-27T05:18:09.806Z,73.14
2023-04-27T05:19:09.657Z,68.89
2023-04-27T05:20:09.637Z,70.41
2023-04-27T05:21:09.645Z,72.65
2023-04-27T05:22:09.648Z,73.08
2023-04-27T05:23:09.666Z,69.37
2023-04-27T05:24:09.629Z,73.60
2023-04-27T05:25:09.616Z,68.92
2023-04-27T05:26:09.600Z,71.06
2023-04-27T05:27:09.631Z,67.96
2023-04-27T05:28:09.629Z,70.67
2023-04-27T05:29:09.630Z,71.64
2023-04-27T05:30:09.578Z,70.75
2023-04-27T05:31:09.631Z,68.10
2023-04-27T05:32:09.695Z,71.06
2023-04-27T05:33:09.663Z,73.44
2023-04-27T05:34:09.593Z,71.14
2023-04-27T05:35:09.539Z,68.49
2023-04-27T05:36:09.561Z,72.22
2023-04-27T05:37:09.540Z,70.29
2023-04-27T05:38:09.537Z,72.20
2023-04-27T05:39:09.576Z,72.02
2023-04-27T05:40:09.588Z,68.15
2023-04-27T05:41:09.549Z,70.66
2023-04-27T05:42:09.545Z,68.91
2023-04-27T05:43:09.484Z,71.17
2023-04-27T05:44:09.484Z,66.79
2023-04-27T05:45:09.506Z,70.44
2023-04-27T05:46:09.494Z,69.94
2023-04-27T05:47:09.454Z,69.15
2023-04-27T05:48:09.437Z,72.48
2023-04-27T05:49:09.461Z,71.28
2023-04-27T05:50:09.469Z,71.18
2023-04-27T05:51:09.433Z,66.24
2023-04-27T05:52:09.422Z,72.79
2023-04-27T05:53:09.407Z,69.65
2023-04-27T05:54:09.410Z,70.80
2023-04-27T05:55:10.325Z,66.15
2023-04-27T05:56:09.412Z,70.51
2023-04-27T05:57:09.377Z,65.81
2023-04-27T05:58:09.540Z,69.60
2023-04-27T05:59:09.388Z,65.87
2023-04-27T06:00:09.387Z,68.64
2023-04-27T06:01:09.362Z,69.01
2023-04-27T06:02:09.368Z,66.43
2023-04-27T06:03:09.522Z,70.51
2023-04-27T06:04:09.498Z,69.42
2023-04-27T06:05:09.373Z,64.30
2023-04-27T06:06:09.306Z,67.96
2023-04-27T06:07:10.271Z,65.74
2023-04-27T06:08:09.309Z,66.85
2023-04-27T06:09:09.337Z,68.35
2023-04-27T06:10:09.819Z,71.79
2023-04-27T06:11:09.307Z,67.67
2023-04-27T06:12:10.276Z,66.51
2023-04-27T06:13:09.911Z,65.29
2023-04-27T06:14:09.300Z,70.13
2023-04-27T06:15:09.268Z,63.16
2023-04-27T06:16:09.264Z,66.01
2023-04-27T06:17:09.230Z,65.07
2023-04-27T06:18:09.240Z,66.28
2023-04-27T06:19:09.428Z,70.52
2023-04-27T06:20:09.209Z,65.86
2023-04-27T06:21:09.191Z,69.02
2023-04-27T06:22:09.181Z,68.58
2023-04-27T06:23:09.238Z,67.09
2023-04-27T06:24:09.196Z,65.02
2023-04-27T06:25:09.181Z,64.07
2023-04-27T06:26:09.186Z,67.03
2023-04-27T06:27:09.198Z,66.73
2023-04-27T06:28:09.153Z,68.48
2023-04-27T06:29:09.163Z,62.04
2023-04-27T06:30:09.666Z,68.89
2023-04-27T06:31:09.175Z,66.75
2023-04-27T06:32:09.149Z,61.24
2023-04-27T06:33:09.206Z,66.82
2023-04-27T06:34:09.115Z,68.29
2023-04-27T06:35:09.141Z,62.84
2023-04-27T06:36:09.137Z,65.01
2023-04-27T06:37:09.827Z,67.62
2023-04-27T06:38:09.078Z,69.55
2023-04-27T06:39:09.101Z,69.79
2023-04-27T06:40:09.065Z,70.49
2023-04-27T06:41:09.032Z,64.44
2023-04-27T06:42:09.130Z,66.99
2023-04-27T06:43:09.055Z,69.71
2023-04-27T06:44:09.033Z,69.27
2023-04-27T06:45:09.012Z,62.46
2023-04-27T06:46:09.053Z,70.60
2023-04-27T06:47:09.043Z,68.92
2023-04-27T06:48:08.998Z,63.33
2023-04-27T06:49:08.993Z,64.36
2023-04-27T06:50:08.989Z,68.92
2023-04-27T06:51:08.993Z,66.09
2023-04-27T06:52:09.024Z,64.09
2023-04-27T06:53:08.960Z,62.13
2023-04-27T06:54:08.967Z,68.54
2023-04-27T06:55:08.938Z,68.02
2023-04-27T06:56:08.914Z,65.69
2023-04-27T06:57:08.941Z,69.69
2023-04-27T06:58:08.927Z,66.49
2023-04-27T06:59:09.418Z,68.66
2023-04-27T07:00:08.895Z,67.60
2023-04-27T07:01:08.931Z,65.42
2023-04-27T07:02:08.871Z,68.15
2023-04-27T07:03:09.034Z,64.46
2023-04-27T07:04:09.046Z,64.84
2023-04-27T07:05:08.905Z,63.13
2023-04-27T07:06:08.869Z,64.55
2023-04-27T07:07:08.857Z,65.33
2023-04-27T07:08:09.264Z,70.92
2023-04-27T07:09:19.870Z,65.35
2023-04-27T07:10:10.837Z,67.03
2023-04-27T07:11:08.835Z,66.37
2023-04-27T07:12:08.826Z,67.46
2023-04-27T07:13:09.538Z,64.18
2023-04-27T07:14:09.786Z,64.16
2023-04-27T07:15:08.811Z,64.84
2023-04-27T07:16:08.821Z,71.60
2023-04-27T07:17:08.804Z,68.75
2023-04-27T07:18:08.875Z,65.92
2023-04-27T07:19:08.739Z,58.72
2023-04-27T07:20:08.823Z,64.36
2023-04-27T07:21:08.730Z,67.74
2023-04-27T07:22:08.853Z,66.69
2023-04-27T07:23:08.755Z,65.88
2023-04-27T07:24:08.705Z,65.52
2023-04-27T07:25:08.731Z,59.33
2023-04-27T07:26:08.711Z,69.02
2023-04-27T07:27:08.751Z,57.92
2023-04-27T07:28:08.717Z,69.48
2023-04-27T07:29:23.018Z,64.00
2023-04-27T07:30:10.698Z,68.28
2023-04-27T07:31:08.689Z,62.61
2023-04-27T07:32:09.092Z,67.82
2023-04-27T07:33:08.706Z,62.89
2023-04-27T07:34:08.644Z,64.10
2023-04-27T07:35:08.657Z,63.41
2023-04-27T07:36:08.608Z,67.93
2023-04-27T07:37:09.353Z,63.08
2023-04-27T07:38:08.610Z,66.49
2023-04-27T07:39:08.620Z,68.53
2023-04-27T07:40:08.585Z,69.85
2023-04-27T07:41:08.570Z,68.44
2023-04-27T07:42:08.596Z,69.41
2023-04-27T07:43:08.564Z,64.22
2023-04-27T07:44:08.569Z,66.02
2023-04-27T07:45:08.551Z,66.73
2023-04-27T07:46:40.515Z,66.11
2023-04-27T07:47:08.541Z,70.38
2023-04-27T07:48:08.607Z,67.18
2023-04-27T07:49:08.517Z,65.23
2023-04-27T07:50:08.520Z,65.37
2023-04-27T07:51:08.512Z,67.66
2023-04-27T07:52:08.517Z,62.86
2023-04-27T07:53:08.490Z,65.73
2023-04-27T07:54:08.479Z,63.47
2023-04-27T07:55:08.470Z,66.15
2023-04-27T07:56:08.471Z,67.19
2023-04-27T07:57:08.455Z,64.42
2023-04-27T07:58:08.451Z,65.65
2023-04-27T07:59:08.460Z,56.51
2023-04-27T08:00:08.425Z,65.23
2023-04-27T08:01:08.415Z,61.24
2023-04-27T08:02:19.036Z,62.84
2023-04-27T08:03:10.554Z,65.09
2023-04-27T08:04:08.633Z,65.96
2023-04-27T08:05:08.796Z,63.52
2023-04-27T08:06:08.813Z,68.41
2023-04-27T08:07:08.807Z,59.38
2023-04-27T08:08:08.976Z,62.52
2023-04-27T08:09:08.377Z,66.31
2023-04-27T08:10:08.346Z,68.20
2023-04-27T08:11:08.428Z,67.44
2023-04-27T08:12:08.335Z,65.53
2023-04-27T08:13:08.309Z,67.18
2023-04-27T08:14:08.427Z,65.95
2023-04-27T08:15:08.340Z,65.35
2023-04-27T08:16:08.332Z,65.42
2023-04-27T08:17:08.328Z,60.97
2023-04-27T08:18:08.307Z,65.47
2023-04-27T08:19:08.305Z,64.32
2023-04-27T08:20:08.297Z,67.56
2023-04-27T08:21:08.272Z,72.45
2023-04-27T08:22:08.283Z,61.00
2023-04-27T08:23:08.246Z,64.33
2023-04-27T08:24:08.251Z,65.86
2023-04-27T08:25:08.270Z,67.17
2023-04-27T08:26:08.233Z,62.84
2023-04-27T08:27:08.222Z,68.71
2023-04-27T08:28:08.255Z,65.42
2023-04-27T08:29:15.785Z,70.35
2023-04-27T08:30:10.246Z,56.41
2023-04-27T08:31:08.249Z,62.11
2023-04-27T08:32:08.206Z,66.91
2023-04-27T08:33:08.219Z,68.67
2023-04-27T08:34:08.187Z,64.55
2023-04-27T08:35:08.174Z,62.03
2023-04-27T08:36:08.319Z,66.48
2023-04-27T08:37:08.148Z,67.83
2023-04-27T08:38:08.161Z,67.47
2023-04-27T08:39:08.161Z,63.27
2023-04-27T08:40:08.194Z,66.66
2023-04-27T08:41:20.776Z,63.07
2023-04-27T08:42:10.134Z,57.28
2023-04-27T08:43:08.102Z,62.03
2023-04-27T08:44:08.918Z,63.40
2023-04-27T08:45:08.094Z,60.80
2023-04-27T08:46:08.073Z,69.08
2023-04-27T08:47:08.042Z,66.99
2023-04-27T08:48:08.151Z,56.88
2023-04-27T08:49:08.198Z,63.47
2023-04-27T08:50:08.083Z,63.35
2023-04-27T08:51:08.052Z,61.70
2023-04-27T08:52:08.085Z,69.74
2023-04-27T08:53:08.026Z,63.69
2023-04-27T08:54:08.019Z,69.02
2023-04-27T08:55:08.000Z,65.60
2023-04-27T08:56:08.017Z,68.31
2023-04-27T08:57:07.997Z,63.50
2023-04-27T08:58:08.083Z,64.06
2023-04-27T08:59:07.972Z,64.53
2023-04-27T09:00:07.959Z,63.66
2023-04-27T09:01:07.998Z,63.57
2023-04-27T09:02:08.173Z,58.48
2023-04-27T09:03:08.047Z,59.96
2023-04-27T09:04:08.207Z,64.40
2023-04-27T09:05:08.033Z,62.57
2023-04-27T09:06:08.089Z,68.04
2023-04-27T09:07:08.924Z,61.15
2023-04-27T09:08:07.998Z,65.22
2023-04-27T09:09:07.913Z,67.42
2023-04-27T09:10:07.951Z,56.79
2023-04-27T09:11:07.916Z,69.87
2023-04-27T09:12:07.894Z,65.73
2023-04-27T09:13:07.873Z,67.51
2023-04-27T09:14:07.896Z,63.75
2023-04-27T09:15:07.874Z,67.32
2023-04-27T09:16:07.894Z,63.42
2023-04-27T09:17:07.841Z,70.26
2023-04-27T09:18:08.436Z,63.54
2023-04-27T09:19:07.843Z,62.46
2023-04-27T09:20:07.833Z,67.08
2023-04-27T09:21:07.804Z,67.80
2023-04-27T09:22:07.823Z,64.89
2023-04-27T09:23:07.809Z,61.66
2023-04-27T09:24:07.813Z,63.41
2023-04-27T09:25:07.784Z,68.63
2023-04-27T09:26:07.759Z,66.47
2023-04-27T09:27:07.797Z,67.32
2023-04-27T09:28:07.750Z,66.73
2023-04-27T09:29:07.755Z,55.99
2023-04-27T09:30:07.810Z,64.11
2023-04-27T09:31:07.764Z,66.09
2023-04-27T09:32:07.750Z,61.78
2023-04-27T09:33:07.799Z,67.06
2023-04-27T09:34:07.697Z,67.68
2023-04-27T09:35:07.981Z,56.93
2023-04-27T09:36:09.356Z,59.71
2023-04-27T09:37:07.714Z,63.09
2023-04-27T09:38:07.742Z,68.16
2023-04-27T09:39:07.717Z,65.17
2023-04-27T09:40:07.806Z,63.70
2023-04-27T09:41:07.718Z,60.48
2023-04-27T09:42:07.760Z,60.78
2023-04-27T09:43:07.645Z,66.19
2023-04-27T09:44:08.631Z,64.14
2023-04-27T09:45:07.635Z,57.78
2023-04-27T09:46:07.822Z,64.22
2023-04-27T09:47:07.689Z,63.75
2023-04-27T09:48:07.666Z,65.89
2023-04-27T09:49:07.590Z,57.87
2023-04-27T09:50:07.586Z,65.65
2023-04-27T09:51:07.611Z,60.79
2023-04-27T09:52:07.646Z,67.57
2023-04-27T09:53:07.613Z,61.23
2023-04-27T09:54:07.571Z,62.82
2023-04-27T09:55:07.574Z,66.48
2023-04-27T09:56:07.542Z,65.50
2023-04-27T09:57:07.582Z,64.90
2023-04-27T09:58:07.560Z,68.26
2023-04-27T09:59:07.535Z,64.02
2023-04-27T10:00:07.530Z,62.10
2023-04-27T10:01:07.637Z,67.56
2023-04-27T10:02:20.860Z,64.12
2023-04-27T10:03:09.613Z,68.73
2023-04-27T10:04:07.755Z,65.86
2023-04-27T10:05:07.515Z,65.13
2023-04-27T10:06:07.470Z,57.25
2023-04-27T10:07:07.450Z,65.46
2023-04-27T10:08:07.488Z,69.85
2023-04-27T10:09:07.487Z,65.40
2023-04-27T10:10:07.480Z,63.46
2023-04-27T10:11:07.761Z,65.68
2023-04-27T10:12:07.492Z,51.01
2023-04-27T10:13:07.448Z,72.92
2023-04-27T10:14:07.455Z,66.65
2023-04-27T10:15:07.448Z,62.71
2023-04-27T10:16:07.469Z,63.02
2023-04-27T10:17:07.461Z,63.46
2023-04-27T10:18:07.498Z,61.66
2023-04-27T10:19:07.353Z,64.01
2023-04-27T10:20:08.353Z,68.20
2023-04-27T10:21:07.392Z,60.89
2023-04-27T10:22:07.343Z,69.32
2023-04-27T10:23:07.359Z,64.92
2023-04-27T10:24:07.331Z,65.96
2023-04-27T10:25:07.334Z,64.68
2023-04-27T10:26:07.356Z,66.33
2023-04-27T10:27:07.301Z,62.05
2023-04-27T10:28:07.285Z,60.69
2023-04-27T10:29:07.318Z,62.56
2023-04-27T10:30:07.299Z,66.59
2023-04-27T10:31:07.322Z,64.77
2023-04-27T10:32:07.264Z,59.05
2023-04-27T10:33:07.364Z,61.21
2023-04-27T10:34:07.295Z,64.89
2023-04-27T10:35:07.241Z,67.19
2023-04-27T10:36:07.246Z,68.18
2023-04-27T10:37:07.253Z,64.57
2023-04-27T10:38:07.251Z,62.32
2023-04-27T10:39:07.186Z,64.20
2023-04-27T10:40:08.188Z,66.54
2023-04-27T10:41:07.187Z,65.30
2023-04-27T10:42:07.172Z,63.55
2023-04-27T10:43:07.204Z,58.06
2023-04-27T10:44:07.206Z,65.71
2023-04-27T10:45:07.175Z,65.98
2023-04-27T10:46:07.196Z,64.78
2023-04-27T10:47:07.197Z,65.19
2023-04-27T10:48:07.269Z,68.49
2023-04-27T10:49:07.139Z,60.37
2023-04-27T10:50:07.173Z,64.90
2023-04-27T10:51:07.125Z,66.55
2023-04-27T10:52:07.120Z,68.35
2023-04-27T10:53:07.144Z,65.34
2023-04-27T10:54:07.101Z,64.09
2023-04-27T10:55:07.089Z,67.52
2023-04-27T10:56:07.292Z,61.98
2023-04-27T10:57:07.085Z,65.75
2023-04-27T10:58:07.076Z,62.25
2023-04-27T10:59:07.063Z,66.72
2023-04-27T11:00:08.030Z,68.99
2023-04-27T11:01:07.091Z,62.42
2023-04-27T11:02:07.072Z,65.18
2023-04-27T11:03:07.138Z,60.43
2023-04-27T11:04:07.022Z,66.54
2023-04-27T11:05:07.158Z,69.19
2023-04-27T11:06:07.063Z,60.73
2023-04-27T11:07:07.004Z,68.15
2023-04-27T11:08:07.049Z,66.25
2023-04-27T11:09:07.037Z,62.22
2023-04-27T11:10:06.974Z,66.82
2023-04-27T11:11:06.987Z,65.41
2023-04-27T11:12:06.971Z,67.02
2023-04-27T11:13:07.014Z,66.14
2023-04-27T11:14:06.976Z,60.79
2023-04-27T11:15:07.025Z,66.84
2023-04-27T11:16:07.031Z,66.34
2023-04-27T11:17:06.914Z,66.37
2023-04-27T11:18:07.579Z,67.13
2023-04-27T11:19:06.999Z,62.43
2023-04-27T11:20:06.906Z,67.14
2023-04-27T11:21:06.915Z,68.39
2023-04-27T11:22:06.881Z,67.25
2023-04-27T11:23:06.868Z,56.63
2023-04-27T11:24:06.896Z,62.07
2023-04-27T11:25:06.844Z,65.83
2023-04-27T11:26:06.849Z,65.46
2023-04-27T11:27:06.865Z,65.09
2023-04-27T11:28:06.876Z,63.37
2023-04-27T11:29:06.832Z,69.08
2023-04-27T11:30:06.817Z,66.28
2023-04-27T11:31:06.875Z,59.30
2023-04-27T11:32:06.884Z,64.14
2023-04-27T11:33:06.811Z,65.56
2023-04-27T11:34:07.850Z,65.64
2023-04-27T11:35:06.767Z,64.71
2023-04-27T11:36:06.758Z,67.37
2023-04-27T11:37:17.805Z,66.08
2023-04-27T11:38:08.756Z,64.73
2023-04-27T11:39:06.808Z,60.05
2023-04-27T11:40:06.719Z,68.78
2023-04-27T11:41:07.883Z,67.87
2023-04-27T11:42:06.741Z,66.62
2023-04-27T11:43:06.708Z,64.78
2023-04-27T11:44:06.758Z,62.36
2023-04-27T11:45:06.728Z,59.21
2023-04-27T11:46:06.667Z,69.35
2023-04-27T11:47:06.759Z,65.83
2023-04-27T11:48:06.763Z,64.01
2023-04-27T11:49:06.738Z,63.88
2023-04-27T11:50:06.703Z,64.84
2023-04-27T11:51:06.658Z,64.53
2023-04-27T11:52:06.656Z,66.07
2023-04-27T11:53:06.658Z,66.35
2023-04-27T11:54:06.642Z,63.47
2023-04-27T11:55:06.636Z,68.07
2023-04-27T11:56:06.597Z,66.97
2023-04-27T11:57:06.602Z,68.01
2023-04-27T11:58:06.607Z,67.48
2023-04-27T11:59:06.654Z,63.95
2023-04-27T12:00:06.563Z,63.69
2023-04-27T12:01:06.614Z,68.15
2023-04-27T12:02:06.667Z,66.43
2023-04-27T12:03:06.739Z,70.01
2023-04-27T12:04:07.737Z,68.22
2023-04-27T12:05:06.865Z,65.77
2023-04-27T12:06:27.295Z,70.60
2023-04-27T12:07:08.502Z,66.12
2023-04-27T12:08:06.544Z,69.50
2023-04-27T12:09:06.517Z,69.04
2023-04-27T12:10:07.458Z,64.08
2023-04-27T12:11:06.497Z,59.12
2023-04-27T12:12:06.493Z,68.22
2023-04-27T12:13:06.495Z,68.52
2023-04-27T12:14:06.469Z,70.05
2023-04-27T12:15:06.444Z,66.22
2023-04-27T12:16:06.451Z,60.32
2023-04-27T12:17:06.509Z,66.16
2023-04-27T12:18:06.582Z,71.01
2023-04-27T12:19:06.441Z,67.28
2023-04-27T12:20:06.468Z,69.03
2023-04-27T12:21:08.245Z,67.01
2023-04-27T12:22:06.410Z,66.65
2023-04-27T12:23:06.512Z,66.43
2023-04-27T12:24:06.433Z,65.56
2023-04-27T12:25:06.446Z,67.55
2023-04-27T12:26:06.375Z,61.87
2023-04-27T12:27:06.377Z,68.64
2023-04-27T12:28:06.366Z,64.91
2023-04-27T12:29:06.379Z,67.75
2023-04-27T12:30:06.390Z,66.37
2023-04-27T12:31:06.377Z,66.23
2023-04-27T12:32:06.332Z,63.34
2023-04-27T12:33:06.337Z,62.90
2023-04-27T12:34:06.340Z,67.15
2023-04-27T12:35:06.377Z,68.99
2023-04-27T12:36:06.356Z,66.05
2023-04-27T12:37:06.289Z,64.89
2023-04-27T12:38:06.290Z,71.02
2023-04-27T12:39:06.359Z,66.70
2023-04-27T12:40:06.323Z,67.15
2023-04-27T12:41:06.272Z,66.35
2023-04-27T12:42:06.259Z,66.06
2023-04-27T12:43:06.302Z,66.14
2023-04-27T12:44:06.292Z,67.19
2023-04-27T12:45:06.291Z,58.94
2023-04-27T12:46:06.464Z,66.46
2023-04-27T12:47:06.263Z,62.95
2023-04-27T12:48:06.367Z,68.81
2023-04-27T12:49:06.246Z,66.80
2023-04-27T12:50:06.308Z,63.20
2023-04-27T12:51:06.232Z,67.08
2023-04-27T12:52:06.210Z,62.83
2023-04-27T12:53:06.194Z,67.98
2023-04-27T12:54:06.186Z,66.39
2023-04-27T12:55:06.183Z,64.48
2023-04-27T12:56:06.181Z,62.49
2023-04-27T12:57:06.169Z,61.36
2023-04-27T12:58:06.155Z,64.93
2023-04-27T12:59:06.201Z,62.55
2023-04-27T13:00:06.143Z,66.00
2023-04-27T13:01:06.139Z,62.95
2023-04-27T13:02:06.161Z,67.54
2023-04-27T13:03:06.241Z,67.62
2023-04-27T13:04:06.280Z,68.67
2023-04-27T13:05:06.262Z,67.29
2023-04-27T13:06:06.124Z,63.49
2023-04-27T13:07:06.091Z,66.29
2023-04-27T13:08:06.112Z,66.82
2023-04-27T13:09:06.096Z,67.16